KAZE

Hazlehurst Airport

Hazlehurst, Georgia, USA
METAR KAZE 191510Z AUTO 00000KT 10SM SCT008 18/14 A3017 RMK AO2 T01770142
Observed Flight Rules
Nov-19 @ 15:10 UTC (31 minutes ago) Visual Flight Rules
Visibility Clouds
10 miles
  • Scattered at 800' AGL
Temperatures Readings
Current 18°C / 64°F
Dewpoint 14°C / 57°F
Humidity 78%
Altimeter 30.17" Hg
Pressure 1022 hPa
Elevation 78
METAR KAZE 191510Z AUTO 00000KT 10SM SCT008 18/14 A3017 RMK AO2 T01770142
Observed Flight Rules
Nov-19 @ 15:10 UTC
(31 minutes ago)
VFR
Clouds
  • Scattered at 800' AGL
Temperature Dewpoint
18°C / 64°F 14°C / 57°F
Humidity Altimeter Pressure
78% 30.17" Hg 1022 hPa